createdAt,value
2018-07-12T00:01:15.716Z,99.90
2018-07-12T00:03:42.914Z,99.90
2018-07-12T00:06:10.101Z,99.90
2018-07-12T00:11:04.719Z,99.90
2018-07-12T00:13:31.880Z,99.90
2018-07-12T00:15:59.062Z,99.90
2018-07-12T00:18:26.239Z,99.90
2018-07-12T00:20:53.427Z,99.90
2018-07-12T00:23:20.593Z,99.90
2018-07-12T00:25:47.775Z,99.90
2018-07-12T00:28:14.941Z,99.90
2018-07-12T00:30:42.122Z,99.90
2018-07-12T00:33:09.305Z,99.90
2018-07-12T00:35:36.516Z,99.90
2018-07-12T00:38:03.700Z,99.90
2018-07-12T00:40:30.880Z,99.90
2018-07-12T00:42:58.053Z,99.90
2018-07-12T00:45:25.235Z,99.90
2018-07-12T00:47:52.400Z,99.90
2018-07-12T00:50:19.586Z,99.90
2018-07-12T00:52:46.758Z,99.90
2018-07-12T00:57:41.373Z,99.90
2018-07-12T01:02:35.974Z,99.90
2018-07-12T01:07:30.617Z,99.90
2018-07-12T01:09:57.787Z,99.90
2018-07-12T01:12:24.975Z,99.90
2018-07-12T01:14:52.163Z,99.90
2018-07-12T01:17:19.342Z,99.90
2018-07-12T01:19:46.523Z,99.90
2018-07-12T01:22:13.714Z,99.90
2018-07-12T01:24:40.883Z,99.90
2018-07-12T01:27:08.062Z,99.90
2018-07-12T01:29:35.253Z,99.90
2018-07-12T01:32:02.447Z,99.90
2018-07-12T01:34:29.612Z,99.90
2018-07-12T01:36:56.790Z,99.90
2018-07-12T01:41:52.167Z,99.90
2018-07-12T01:44:19.328Z,99.90
2018-07-12T01:46:46.495Z,99.90
2018-07-12T01:49:13.652Z,99.90
2018-07-12T01:51:40.821Z,99.90
2018-07-12T01:54:07.985Z,99.90
2018-07-12T01:56:35.159Z,99.90
2018-07-12T01:59:02.320Z,99.90
2018-07-12T02:01:29.503Z,99.90
2018-07-12T02:03:56.671Z,99.90
2018-07-12T02:06:23.835Z,99.90
2018-07-12T02:08:50.995Z,99.90
2018-07-12T02:11:18.171Z,99.90
2018-07-12T02:13:45.329Z,99.90
2018-07-12T02:16:12.511Z,99.90
2018-07-12T02:21:07.095Z,99.90
2018-07-12T02:23:34.247Z,99.90
2018-07-12T02:26:01.433Z,99.90
2018-07-12T02:28:28.584Z,99.90
2018-07-12T02:30:55.756Z,99.90
2018-07-12T02:33:22.920Z,99.90
2018-07-12T02:35:50.082Z,99.90
2018-07-12T02:38:17.247Z,99.90
2018-07-12T02:40:44.407Z,99.90
2018-07-12T02:43:11.580Z,99.90
2018-07-12T02:45:38.748Z,99.90
2018-07-12T02:48:05.921Z,99.90
2018-07-12T02:50:33.078Z,99.90
2018-07-12T02:53:00.249Z,99.90
2018-07-12T02:55:27.421Z,99.90
2018-07-12T03:00:22.029Z,99.90
2018-07-12T03:05:16.615Z,99.90
2018-07-12T03:07:43.780Z,99.90
2018-07-12T03:12:38.368Z,99.90
2018-07-12T03:15:05.548Z,99.90
2018-07-12T03:20:00.224Z,99.90
2018-07-12T03:22:27.385Z,99.90
2018-07-12T03:27:21.991Z,99.90
2018-07-12T03:32:16.583Z,99.90
2018-07-12T03:34:43.739Z,99.90
2018-07-12T03:37:10.931Z,99.90
2018-07-12T03:39:38.089Z,99.90
2018-07-12T03:42:05.247Z,99.90
2018-07-12T03:44:32.408Z,99.90
2018-07-12T03:46:59.590Z,99.90
2018-07-12T03:49:26.775Z,99.90
2018-07-12T03:51:53.969Z,99.90
2018-07-12T03:54:21.120Z,99.90
2018-07-12T03:56:48.301Z,99.90
2018-07-12T04:04:10.568Z,99.90
2018-07-12T04:09:05.673Z,99.90
2018-07-12T04:11:32.843Z,99.90
2018-07-12T04:16:27.580Z,99.90
2018-07-12T04:18:54.744Z,99.90
2018-07-12T04:21:21.907Z,99.90
2018-07-12T04:23:49.081Z,99.90
2018-07-12T04:26:16.249Z,99.90
2018-07-12T04:31:10.855Z,99.90
2018-07-12T04:33:38.032Z,99.90
2018-07-12T04:36:05.199Z,99.90
2018-07-12T04:38:32.369Z,99.90
2018-07-12T04:40:59.528Z,99.90
2018-07-12T04:43:26.699Z,99.90
2018-07-12T04:45:53.855Z,99.90
2018-07-12T04:48:21.023Z,99.90
2018-07-12T04:50:48.197Z,99.90
2018-07-12T04:53:15.356Z,99.90
2018-07-12T04:55:42.507Z,99.90
2018-07-12T04:58:09.736Z,99.90
2018-07-12T05:00:36.833Z,99.90
2018-07-12T05:03:04.095Z,99.90
2018-07-12T05:05:31.336Z,99.90
2018-07-12T05:07:58.504Z,99.90
2018-07-12T05:12:53.119Z,99.90
2018-07-12T05:17:47.719Z,99.90
2018-07-12T05:22:42.297Z,99.90
2018-07-12T05:25:09.461Z,99.90
2018-07-12T05:27:36.631Z,99.90
2018-07-12T05:34:58.795Z,99.90
2018-07-12T05:44:50.640Z,99.90
2018-07-12T05:47:18.759Z,99.90
2018-07-12T05:49:46.955Z,99.90
2018-07-12T05:52:15.061Z,99.90
2018-07-12T05:54:43.211Z,99.90
2018-07-12T05:57:11.328Z,99.90
2018-07-12T06:02:18.312Z,99.90
2018-07-12T06:04:46.595Z,99.90
2018-07-12T06:07:18.980Z,99.90
2018-07-12T06:14:43.332Z,99.90
2018-07-12T06:17:11.448Z,99.90
2018-07-12T06:19:39.598Z,99.90
2018-07-12T06:22:07.724Z,99.90
2018-07-12T06:24:35.952Z,99.90
2018-07-12T06:27:04.036Z,99.90
2018-07-12T06:29:32.183Z,99.90
2018-07-12T06:32:00.296Z,99.90
2018-07-12T06:34:28.423Z,99.90
2018-07-12T06:36:56.624Z,99.90
2018-07-12T06:39:24.760Z,99.90
2018-07-12T06:41:53.006Z,99.90
2018-07-12T06:46:49.069Z,99.90
2018-07-12T06:49:17.192Z,99.90
2018-07-12T06:51:45.323Z,99.90
2018-07-12T06:54:13.459Z,99.90
2018-07-12T06:59:09.488Z,99.90
2018-07-12T07:01:37.611Z,99.90
2018-07-12T07:04:05.832Z,99.90
2018-07-12T07:06:33.953Z,99.90
2018-07-12T07:09:02.083Z,99.90
2018-07-12T07:13:58.122Z,99.90
2018-07-12T07:18:54.173Z,99.90
2018-07-12T07:23:50.239Z,99.90
2018-07-12T07:26:18.474Z,99.90
2018-07-12T07:28:46.585Z,99.90
2018-07-12T07:31:14.729Z,99.90
2018-07-12T07:33:42.861Z,99.90
2018-07-12T07:36:10.988Z,99.90
2018-07-12T07:38:39.108Z,99.90
2018-07-12T07:41:07.261Z,99.90
2018-07-12T07:43:35.424Z,99.90
2018-07-12T07:46:03.548Z,99.90
2018-07-12T07:48:31.678Z,99.90
2018-07-12T07:50:59.807Z,99.90
2018-07-12T07:55:55.848Z,99.90
2018-07-12T08:03:19.921Z,99.90
2018-07-12T08:05:48.059Z,99.90
2018-07-12T08:08:16.184Z,99.90
2018-07-12T08:10:44.324Z,99.90
2018-07-12T08:13:12.500Z,99.90
2018-07-12T08:15:40.632Z,99.90
2018-07-12T08:18:08.755Z,99.90
2018-07-12T08:20:36.892Z,99.90
2018-07-12T08:23:05.043Z,99.90
2018-07-12T08:30:34.780Z,99.90
2018-07-12T08:33:02.911Z,99.90
2018-07-12T08:35:31.028Z,99.90
2018-07-12T08:40:27.127Z,99.90
2018-07-12T08:42:55.230Z,99.90
2018-07-12T08:45:23.379Z,99.90
2018-07-12T08:47:51.514Z,99.90
2018-07-12T08:50:19.643Z,99.90
2018-07-12T08:52:47.824Z,99.90
2018-07-12T08:55:16.103Z,99.90
2018-07-12T08:57:44.676Z,99.90
2018-07-12T09:00:12.811Z,99.90
2018-07-12T09:02:41.292Z,99.90
2018-07-12T09:05:09.389Z,99.90
2018-07-12T09:07:37.520Z,99.90
2018-07-12T09:10:05.845Z,99.90
2018-07-12T09:12:34.975Z,99.90
2018-07-12T09:15:03.088Z,99.90
2018-07-12T09:17:31.203Z,99.90
2018-07-12T09:19:59.344Z,99.90
2018-07-12T09:22:27.480Z,99.90
2018-07-12T09:24:55.624Z,99.90
2018-07-12T09:29:51.679Z,99.90
2018-07-12T09:34:47.755Z,99.90
2018-07-12T09:37:15.884Z,99.90
2018-07-12T09:42:11.927Z,99.90
2018-07-12T09:44:40.065Z,99.90
2018-07-12T09:47:08.228Z,99.90
2018-07-12T09:49:36.324Z,99.90
2018-07-12T09:52:08.715Z,99.90
2018-07-12T09:57:16.278Z,99.90
2018-07-12T09:59:44.398Z,99.90
2018-07-12T10:04:46.109Z,99.90
2018-07-12T10:07:19.795Z,99.90
2018-07-12T10:09:53.424Z,99.90
2018-07-12T10:12:27.032Z,99.90
2018-07-12T10:15:00.806Z,99.90
2018-07-12T10:17:34.620Z,99.90
2018-07-12T10:20:03.653Z,99.90
2018-07-12T10:22:31.795Z,99.90
2018-07-12T10:24:59.919Z,99.90
2018-07-12T10:29:56.391Z,99.90
2018-07-12T10:32:24.592Z,99.90
2018-07-12T10:34:52.703Z,99.90
2018-07-12T10:37:20.836Z,99.90
2018-07-12T10:39:48.965Z,99.90
2018-07-12T10:42:17.104Z,99.90
2018-07-12T10:44:45.230Z,99.90
2018-07-12T10:47:13.363Z,99.90
2018-07-12T10:49:41.495Z,99.90
2018-07-12T10:52:09.664Z,99.90
2018-07-12T10:54:37.794Z,99.90
2018-07-12T10:57:06.097Z,99.90
2018-07-12T10:59:34.327Z,99.90
2018-07-12T11:02:02.472Z,99.90
2018-07-12T11:04:30.640Z,99.90
2018-07-12T11:06:58.728Z,99.90
2018-07-12T11:09:26.870Z,99.90
2018-07-12T11:11:55.004Z,99.90
2018-07-12T11:14:23.128Z,99.90
2018-07-12T11:16:51.271Z,99.90
2018-07-12T11:21:47.388Z,99.90
2018-07-12T11:24:15.524Z,99.90
2018-07-12T11:26:43.640Z,99.90
2018-07-12T11:29:11.760Z,99.90
2018-07-12T11:31:39.896Z,99.90
2018-07-12T11:36:35.993Z,99.90
2018-07-12T11:39:05.846Z,99.90
2018-07-12T11:41:33.996Z,99.90
2018-07-12T11:44:02.120Z,99.90
2018-07-12T11:46:30.239Z,99.90
2018-07-12T11:48:58.388Z,99.90
2018-07-12T11:51:26.528Z,99.90
2018-07-12T11:53:54.649Z,99.90
2018-07-12T11:56:22.792Z,99.90
2018-07-12T11:58:51.043Z,99.90
2018-07-12T12:01:19.184Z,99.90
2018-07-12T12:03:47.323Z,99.90
2018-07-12T12:06:15.445Z,99.90
2018-07-12T12:08:43.596Z,99.90
2018-07-12T12:11:11.732Z,99.90
2018-07-12T12:13:39.871Z,99.90
2018-07-12T12:18:35.900Z,99.90
2018-07-12T12:21:04.024Z,99.90
2018-07-12T12:23:32.196Z,99.90
2018-07-12T12:26:00.293Z,99.90
2018-07-12T12:28:28.440Z,99.90
2018-07-12T12:30:56.568Z,99.90
2018-07-12T12:33:24.721Z,99.90
2018-07-12T12:35:52.807Z,99.90
2018-07-12T12:38:20.935Z,99.90
2018-07-12T12:40:49.052Z,99.90
2018-07-12T12:43:17.200Z,99.90
2018-07-12T12:45:45.455Z,99.90
2018-07-12T12:48:13.591Z,99.90
2018-07-12T12:53:09.665Z,99.90
2018-07-12T12:55:37.796Z,99.90
2018-07-12T13:00:33.893Z,99.90
2018-07-12T13:03:02.028Z,99.90
2018-07-12T13:05:30.148Z,99.90
2018-07-12T13:07:58.297Z,99.90
2018-07-12T13:10:26.423Z,99.90
2018-07-12T13:12:54.546Z,99.90
2018-07-12T13:15:22.691Z,99.90
2018-07-12T13:17:50.829Z,99.90
2018-07-12T13:20:19.066Z,99.90
2018-07-12T13:22:47.175Z,99.90
2018-07-12T13:25:15.285Z,99.90
2018-07-12T13:27:43.436Z,99.90
2018-07-12T13:30:11.562Z,99.90
2018-07-12T13:32:39.675Z,99.70
2018-07-12T13:35:07.797Z,99.90
2018-07-12T13:37:35.954Z,98.50
2018-07-12T13:40:04.083Z,96.50
2018-07-12T13:42:32.219Z,94.30
2018-07-12T13:45:00.330Z,94.60
2018-07-12T13:47:28.450Z,93.60
2018-07-12T13:49:56.574Z,92.20
2018-07-12T13:52:24.724Z,89.20
2018-07-12T13:54:52.871Z,89.40
2018-07-12T13:57:20.995Z,86.10
2018-07-12T13:59:49.148Z,85.70
2018-07-12T14:02:17.260Z,86.30
2018-07-12T14:07:13.338Z,87.90
2018-07-12T14:09:41.512Z,89.50
2018-07-12T14:12:09.618Z,86.60
2018-07-12T14:14:37.745Z,81.00
2018-07-12T14:17:05.861Z,78.60
2018-07-12T14:19:33.999Z,75.60
2018-07-12T14:22:02.122Z,74.40
2018-07-12T14:24:30.277Z,72.10
2018-07-12T14:26:58.408Z,78.10
2018-07-12T14:29:26.535Z,74.80
2018-07-12T14:31:54.666Z,72.30
2018-07-12T14:34:22.790Z,71.40
2018-07-12T14:36:50.899Z,67.30
2018-07-12T14:39:19.030Z,68.00
2018-07-12T14:41:47.157Z,67.00
2018-07-12T14:44:15.296Z,68.60
2018-07-12T14:46:43.420Z,68.60
2018-07-12T14:49:11.560Z,68.00
2018-07-12T14:51:39.682Z,67.80
2018-07-12T14:54:07.803Z,69.50
2018-07-12T14:56:35.936Z,69.90
2018-07-12T14:59:04.104Z,68.60
2018-07-12T15:01:32.379Z,67.60
2018-07-12T15:04:00.501Z,66.90
2018-07-12T15:06:28.616Z,63.80
2018-07-12T15:08:56.758Z,61.00
2018-07-12T15:11:24.887Z,60.40
2018-07-12T15:16:20.972Z,62.30
2018-07-12T15:18:49.148Z,67.10
2018-07-12T15:21:17.297Z,69.90
2018-07-12T15:23:45.437Z,72.20
2018-07-12T15:26:13.584Z,75.60
2018-07-12T15:28:41.680Z,79.90
2018-07-12T15:31:09.833Z,82.30
2018-07-12T15:33:37.949Z,84.40
2018-07-12T15:38:34.052Z,92.50
2018-07-12T15:41:02.198Z,94.00
2018-07-12T15:43:30.308Z,95.00
2018-07-12T15:45:58.448Z,96.60
2018-07-12T15:48:26.571Z,98.10
2018-07-12T15:53:22.692Z,98.00
2018-07-12T15:55:50.823Z,98.20
2018-07-12T15:58:18.944Z,98.50
2018-07-12T16:00:47.085Z,98.90
2018-07-12T16:03:15.198Z,99.40
2018-07-12T16:05:43.336Z,98.60
2018-07-12T16:08:11.594Z,98.30
2018-07-12T16:10:39.720Z,98.80
2018-07-12T16:15:35.776Z,98.60
2018-07-12T16:20:32.670Z,97.20
2018-07-12T16:23:00.817Z,97.40
2018-07-12T16:25:28.951Z,97.80
2018-07-12T16:27:57.084Z,97.10
2018-07-12T16:30:25.256Z,96.20
2018-07-12T16:32:53.372Z,96.70
2018-07-12T16:35:21.509Z,97.30
2018-07-12T16:37:49.677Z,96.90
2018-07-12T16:40:17.817Z,97.00
2018-07-12T16:45:13.859Z,94.90
2018-07-12T16:47:41.984Z,94.80
2018-07-12T16:50:10.136Z,95.20
2018-07-12T16:52:38.244Z,95.60
2018-07-12T16:55:06.483Z,97.60
2018-07-12T16:57:34.603Z,96.30
2018-07-12T17:00:02.748Z,96.60
2018-07-12T17:02:30.871Z,96.90
2018-07-12T17:04:59.007Z,97.00
2018-07-12T17:07:27.152Z,96.60
2018-07-12T17:09:55.322Z,97.50
2018-07-12T17:12:23.452Z,97.70
2018-07-12T17:17:19.502Z,97.60
2018-07-12T17:22:15.547Z,98.40
2018-07-12T17:24:43.668Z,98.70
2018-07-12T17:27:11.858Z,98.70
2018-07-12T17:29:39.943Z,98.70
2018-07-12T17:32:08.060Z,98.90
2018-07-12T17:34:36.168Z,99.80
2018-07-12T17:37:04.322Z,99.90
2018-07-12T17:39:32.433Z,99.90
2018-07-12T17:42:00.603Z,99.90
2018-07-12T17:44:28.727Z,99.90
2018-07-12T17:46:56.891Z,99.90
2018-07-12T17:49:24.996Z,99.90
2018-07-12T17:51:53.149Z,99.90
2018-07-12T17:54:21.294Z,99.90
2018-07-12T17:56:49.424Z,99.90
2018-07-12T17:59:17.543Z,99.90
2018-07-12T18:01:45.689Z,99.90
2018-07-12T18:04:13.808Z,99.90
2018-07-12T18:06:41.971Z,99.90
2018-07-12T18:09:10.089Z,99.90
2018-07-12T18:11:38.229Z,99.90
2018-07-12T18:14:06.344Z,99.90
2018-07-12T18:16:34.471Z,99.90
2018-07-12T18:19:02.609Z,99.90
2018-07-12T18:21:30.765Z,99.90
2018-07-12T18:23:58.885Z,99.90
2018-07-12T18:26:27.007Z,99.90
2018-07-12T18:28:55.152Z,99.90
2018-07-12T18:31:23.271Z,99.90
2018-07-12T18:36:19.339Z,99.90
2018-07-12T18:38:47.490Z,99.90
2018-07-12T18:41:15.652Z,99.90
2018-07-12T18:46:11.977Z,99.90
2018-07-12T18:48:40.111Z,99.90
2018-07-12T18:51:08.290Z,99.90
2018-07-12T18:53:36.408Z,99.90
2018-07-12T18:56:04.535Z,99.90
2018-07-12T18:58:32.710Z,99.90
2018-07-12T19:01:00.811Z,99.90
2018-07-12T19:03:28.940Z,99.90
2018-07-12T19:05:57.065Z,99.90
2018-07-12T19:08:25.215Z,99.90
2018-07-12T19:10:53.350Z,99.90
2018-07-12T19:13:21.476Z,99.90
2018-07-12T19:15:49.607Z,99.90
2018-07-12T19:18:17.720Z,99.90
2018-07-12T19:20:45.903Z,99.90
2018-07-12T19:23:14.020Z,99.90
2018-07-12T19:25:42.158Z,99.90
2018-07-12T19:28:10.293Z,99.90
2018-07-12T19:30:38.416Z,99.90
2018-07-12T19:35:34.520Z,99.90
2018-07-12T19:38:02.676Z,99.90
2018-07-12T19:40:30.815Z,99.90
2018-07-12T19:42:58.943Z,99.90
2018-07-12T19:45:27.077Z,99.90
2018-07-12T19:47:55.259Z,99.90
2018-07-12T19:50:23.368Z,99.90
2018-07-12T19:52:51.503Z,99.90
2018-07-12T19:55:19.657Z,99.90
2018-07-12T19:57:47.808Z,99.90
2018-07-12T20:00:15.932Z,99.90
2018-07-12T20:02:44.045Z,99.90
2018-07-12T20:05:12.175Z,99.90
2018-07-12T20:07:40.340Z,99.90
2018-07-12T20:10:08.459Z,99.90
2018-07-12T20:12:36.579Z,99.90
2018-07-12T20:15:05.276Z,99.90
2018-07-12T20:17:33.376Z,99.90
2018-07-12T20:20:01.516Z,99.90
2018-07-12T20:22:29.651Z,99.90
2018-07-12T20:24:57.784Z,99.90
2018-07-12T20:27:25.920Z,99.90
2018-07-12T20:29:54.040Z,99.90
2018-07-12T20:32:22.179Z,99.90
2018-07-12T20:34:50.320Z,99.90
2018-07-12T20:42:14.602Z,99.90
2018-07-12T20:44:42.744Z,99.90
2018-07-12T20:47:10.848Z,99.90
2018-07-12T20:49:38.992Z,99.90
2018-07-12T20:52:07.199Z,99.90
2018-07-12T20:54:35.342Z,99.90
2018-07-12T20:57:03.480Z,99.90
2018-07-12T20:59:31.611Z,99.90
2018-07-12T21:01:59.743Z,99.90
2018-07-12T21:04:27.867Z,99.90
2018-07-12T21:06:55.997Z,99.90
2018-07-12T21:09:24.125Z,99.90
2018-07-12T21:14:20.392Z,99.90
2018-07-12T21:16:48.548Z,99.90
2018-07-12T21:19:16.663Z,99.90
2018-07-12T21:21:44.797Z,99.90
2018-07-12T21:26:40.840Z,99.90
2018-07-12T21:31:36.932Z,99.90
2018-07-12T21:34:05.077Z,99.90
2018-07-12T21:36:33.200Z,99.90
2018-07-12T21:39:02.372Z,99.90
2018-07-12T21:41:30.495Z,99.90
2018-07-12T21:46:26.534Z,99.90
2018-07-12T21:51:22.569Z,99.90
2018-07-12T21:56:18.674Z,99.90
2018-07-12T21:58:46.800Z,99.90
2018-07-12T22:01:14.928Z,99.90
2018-07-12T22:03:43.056Z,99.90
2018-07-12T22:06:11.175Z,99.90
2018-07-12T22:08:39.313Z,99.90
2018-07-12T22:11:07.439Z,99.90
2018-07-12T22:18:32.696Z,99.90
2018-07-12T22:21:00.861Z,99.90
2018-07-12T22:23:28.987Z,99.90
2018-07-12T22:25:57.117Z,99.90
2018-07-12T22:28:25.272Z,99.90
2018-07-12T22:30:53.391Z,99.90
2018-07-12T22:33:21.531Z,99.90
2018-07-12T22:35:49.659Z,99.90
2018-07-12T22:38:17.802Z,99.90
2018-07-12T22:40:45.951Z,99.90
2018-07-12T22:48:10.046Z,99.90
2018-07-12T22:50:38.122Z,99.90
2018-07-12T22:55:34.244Z,99.90
2018-07-12T22:58:02.387Z,99.90
2018-07-12T23:00:30.520Z,99.90
2018-07-12T23:02:58.826Z,99.90
2018-07-12T23:05:26.944Z,99.90
2018-07-12T23:07:55.096Z,99.90
2018-07-12T23:10:23.215Z,99.90
2018-07-12T23:12:51.348Z,99.90
2018-07-12T23:15:19.479Z,99.90
2018-07-12T23:17:47.605Z,99.90
2018-07-12T23:20:15.745Z,99.90
2018-07-12T23:22:43.912Z,99.90
2018-07-12T23:25:12.036Z,99.90
2018-07-12T23:30:08.127Z,99.90
2018-07-12T23:32:36.253Z,99.90
2018-07-12T23:37:32.292Z,99.90
2018-07-12T23:42:28.375Z,99.90
2018-07-12T23:44:56.508Z,99.90
2018-07-12T23:49:52.851Z,99.90
2018-07-12T23:54:49.003Z,99.90
2018-07-12T23:59:45.007Z,99.90
